Time;durP1;ratioP1;P1;durP2;ratioP2;P2;SDS_P1;SDS_P2;PMS_P1;PMS_P2;Temp;Humidity;BMP_temperature;BMP_pressure;BME280_temperature;BME280_humidity;BME280_pressure;Samples;Min_cycle;Max_cycle;Signal;HPM_P1;HPM_P2
2022/12/12 00:00:20;;;;;;;;;;;-2.70;99.90;;;;;;4948594;28;19922;-72
2022/12/12 00:02:45;;;;;;;;;;;-2.70;99.90;;;;;;4943999;28;19933;-72
2022/12/12 00:05:13;;;;;;;;;;;-2.60;99.90;;;;;;4933108;29;19923;-72
2022/12/12 00:07:39;;;;;;;;;;;-2.60;99.90;;;;;;4944148;28;19938;-72
2022/12/12 00:10:05;;;;;;;;;;;-2.50;99.90;;;;;;4957794;28;19938;-72
2022/12/12 00:12:30;;;;;;;;;;;-2.50;99.90;;;;;;4948243;28;19927;-72
2022/12/12 00:14:56;;;;;;;;;;;-2.40;99.90;;;;;;4965245;28;19933;-72
2022/12/12 00:17:21;;;;;;;;;;;-2.40;99.90;;;;;;4935919;28;19926;-73
2022/12/12 00:19:47;;;;;;;;;;;-2.30;99.90;;;;;;4939938;29;19993;-73
2022/12/12 00:22:12;;;;;;;;;;;-2.20;99.90;;;;;;4958228;28;19932;-72
2022/12/12 00:24:38;;;;;;;;;;;-2.20;99.90;;;;;;4980028;28;20017;-72
2022/12/12 00:27:04;;;;;;;;;;;-2.10;99.90;;;;;;4947268;28;19929;-72
2022/12/12 00:29:29;;;;;;;;;;;-2.10;99.90;;;;;;4943198;28;19927;-73
2022/12/12 00:31:55;;;;;;;;;;;-2.00;99.90;;;;;;4945037;28;19928;-72
2022/12/12 00:34:20;;;;;;;;;;;-2.00;99.90;;;;;;4930622;28;20448;-72
2022/12/12 00:36:46;;;;;;;;;;;-1.90;99.90;;;;;;4946741;28;19923;-72
2022/12/12 00:39:11;;;;;;;;;;;-1.90;99.90;;;;;;4947451;29;20070;-72
2022/12/12 00:41:37;;;;;;;;;;;-1.90;99.90;;;;;;4930786;28;19922;-72
2022/12/12 00:44:03;;;;;;;;;;;-1.80;99.90;;;;;;4930447;28;20009;-72
2022/12/12 00:46:29;;;;;;;;;;;-1.80;99.90;;;;;;4959724;28;19926;-72
2022/12/12 00:48:56;;;;;;;;;;;-1.80;99.90;;;;;;4931448;28;20240;-73
2022/12/12 00:51:22;;;;;;;;;;;-1.80;99.90;;;;;;4932568;28;20024;-72
2022/12/12 00:53:49;;;;;;;;;;;-1.80;99.90;;;;;;4948030;28;19927;-71
2022/12/12 00:56:15;;;;;;;;;;;-1.80;99.90;;;;;;4962127;28;19933;-70
2022/12/12 00:58:41;;;;;;;;;;;-1.80;99.90;;;;;;4961013;28;19930;-72
2022/12/12 01:01:07;;;;;;;;;;;-1.70;99.90;;;;;;4934519;28;19995;-72
2022/12/12 01:03:34;;;;;;;;;;;-1.70;99.90;;;;;;4946767;28;19922;-72
2022/12/12 01:05:59;;;;;;;;;;;-1.70;99.90;;;;;;4935607;28;19934;-73
2022/12/12 01:08:25;;;;;;;;;;;-1.70;99.90;;;;;;4946141;28;19923;-72
2022/12/12 01:10:51;;;;;;;;;;;-1.70;99.90;;;;;;4963999;28;19988;-72
2022/12/12 01:13:16;;;;;;;;;;;-1.60;99.90;;;;;;4957769;28;19933;-73
2022/12/12 01:15:42;;;;;;;;;;;-1.60;99.90;;;;;;4968032;28;19922;-72
2022/12/12 01:18:07;;;;;;;;;;;-1.60;99.90;;;;;;4942602;28;19973;-72
2022/12/12 01:20:33;;;;;;;;;;;-1.60;99.90;;;;;;4966244;28;19929;-72
2022/12/12 01:22:58;;;;;;;;;;;-1.60;99.90;;;;;;4968976;28;20333;-72
2022/12/12 01:25:24;;;;;;;;;;;-1.50;99.90;;;;;;4943157;28;19930;-72
2022/12/12 01:27:50;;;;;;;;;;;-1.50;99.90;;;;;;4949084;28;20535;-72
2022/12/12 01:30:17;;;;;;;;;;;-1.50;99.90;;;;;;4944869;28;19974;-73
2022/12/12 01:32:43;;;;;;;;;;;-1.50;99.90;;;;;;4935338;29;19933;-71
2022/12/12 01:35:09;;;;;;;;;;;-1.50;99.90;;;;;;4945046;29;19922;-71
2022/12/12 01:37:35;;;;;;;;;;;-1.40;99.90;;;;;;4947059;28;20022;-70
2022/12/12 01:40:01;;;;;;;;;;;-1.40;99.90;;;;;;4962367;28;19934;-70
2022/12/12 01:42:27;;;;;;;;;;;-1.40;99.90;;;;;;4949370;28;19949;-71
2022/12/12 01:44:53;;;;;;;;;;;-1.40;99.90;;;;;;4963220;28;19980;-71
2022/12/12 01:47:20;;;;;;;;;;;-1.40;99.90;;;;;;4966753;28;20400;-71
2022/12/12 01:49:48;;;;;;;;;;;-1.40;99.90;;;;;;4942312;28;20016;-70
2022/12/12 01:52:16;;;;;;;;;;;-1.40;99.90;;;;;;4955043;28;20391;-70
2022/12/12 01:54:44;;;;;;;;;;;-1.40;99.90;;;;;;4947731;28;19973;-70
2022/12/12 01:57:13;;;;;;;;;;;-1.40;99.90;;;;;;4939887;28;20005;-70
2022/12/12 01:59:39;;;;;;;;;;;-1.40;99.90;;;;;;4973009;28;20418;-70
2022/12/12 02:02:06;;;;;;;;;;;-1.40;99.90;;;;;;4952200;28;19937;-71
2022/12/12 02:04:31;;;;;;;;;;;-1.40;99.90;;;;;;4978972;28;19933;-71
2022/12/12 02:06:57;;;;;;;;;;;-1.40;99.90;;;;;;4931565;28;20386;-70
2022/12/12 02:09:24;;;;;;;;;;;-1.40;99.90;;;;;;4951149;28;20393;-70
2022/12/12 02:11:51;;;;;;;;;;;-1.40;99.90;;;;;;4967880;28;19926;-70
2022/12/12 02:14:18;;;;;;;;;;;-1.30;99.90;;;;;;4950620;28;19937;-70
2022/12/12 02:16:44;;;;;;;;;;;-1.30;99.90;;;;;;4967461;28;20037;-70
2022/12/12 02:19:21;;;;;;;;;;;-1.30;99.90;;;;;;4953005;28;20053;-70
2022/12/12 02:21:56;;;;;;;;;;;-1.30;99.90;;;;;;4958798;28;19929;-70
2022/12/12 02:24:21;;;;;;;;;;;-1.20;99.90;;;;;;4948259;28;19929;-70
2022/12/12 02:27:02;;;;;;;;;;;-1.20;99.90;;;;;;4941186;28;19927;-70
2022/12/12 02:29:40;;;;;;;;;;;-1.20;99.90;;;;;;4955188;28;20393;-70
2022/12/12 02:32:20;;;;;;;;;;;-1.20;99.90;;;;;;4947599;28;19938;-70
2022/12/12 02:35:01;;;;;;;;;;;-1.20;99.90;;;;;;4957154;28;20024;-72
2022/12/12 02:37:33;;;;;;;;;;;-1.10;99.90;;;;;;4966229;28;20530;-72
2022/12/12 02:39:59;;;;;;;;;;;-1.10;99.90;;;;;;4965376;28;20482;-72
2022/12/12 02:42:37;;;;;;;;;;;-1.10;99.90;;;;;;4945566;28;19956;-72
2022/12/12 02:45:07;;;;;;;;;;;-1.10;99.90;;;;;;4949784;28;19923;-72
2022/12/12 02:47:36;;;;;;;;;;;-1.10;99.90;;;;;;4962410;28;19925;-72
2022/12/12 02:50:03;;;;;;;;;;;-1.10;99.90;;;;;;4956625;28;19927;-72
2022/12/12 02:52:29;;;;;;;;;;;-1.10;99.90;;;;;;4966937;28;20555;-73
2022/12/12 02:54:55;;;;;;;;;;;-1.10;99.90;;;;;;4947745;28;19937;-73
2022/12/12 02:57:21;;;;;;;;;;;-1.10;99.90;;;;;;4967758;28;20302;-72
2022/12/12 02:59:51;;;;;;;;;;;-1.10;99.90;;;;;;4965027;28;19930;-73
2022/12/12 03:02:35;;;;;;;;;;;-1.10;99.90;;;;;;4956989;28;19973;-73
2022/12/12 03:08:10;;;;;;;;;;;-1.10;99.90;;;;;;4966929;28;20020;-72
2022/12/12 03:10:39;;;;;;;;;;;-1.10;99.90;;;;;;4964614;28;20354;-72
2022/12/12 03:13:08;;;;;;;;;;;-1.10;99.90;;;;;;4976228;28;19941;-72
2022/12/12 03:16:12;;;;;;;;;;;-1.20;99.90;;;;;;4948647;28;19973;-72
2022/12/12 03:18:38;;;;;;;;;;;-1.20;99.90;;;;;;4890013;29;20038;-72
2022/12/12 03:21:14;;;;;;;;;;;-1.30;99.90;;;;;;4904841;29;20041;-72
2022/12/12 03:23:44;;;;;;;;;;;-1.30;99.90;;;;;;4904208;28;19923;-73
2022/12/12 03:26:16;;;;;;;;;;;-1.30;99.90;;;;;;4963732;28;20263;-72
2022/12/12 03:28:50;;;;;;;;;;;-1.40;99.90;;;;;;4958947;28;19937;-72
2022/12/12 03:31:18;;;;;;;;;;;-1.50;99.90;;;;;;4974373;28;19965;-73
2022/12/12 03:33:57;;;;;;;;;;;-1.50;99.90;;;;;;4932899;28;19937;-72
2022/12/12 03:36:23;;;;;;;;;;;-1.50;99.90;;;;;;4966672;28;19926;-72
2022/12/12 03:38:55;;;;;;;;;;;-1.60;99.90;;;;;;4947370;28;19929;-72
2022/12/12 03:41:23;;;;;;;;;;;-1.70;99.90;;;;;;4957608;28;19941;-72
2022/12/12 03:43:52;;;;;;;;;;;-1.70;99.90;;;;;;4966041;28;19933;-72
2022/12/12 03:46:27;;;;;;;;;;;-1.70;99.90;;;;;;4947710;28;19922;-72
2022/12/12 03:48:59;;;;;;;;;;;-1.70;99.90;;;;;;4949889;28;20768;-72
2022/12/12 03:51:29;;;;;;;;;;;-1.80;99.90;;;;;;4947863;28;19929;-70
2022/12/12 03:53:57;;;;;;;;;;;-1.80;99.90;;;;;;4963306;28;19937;-70
2022/12/12 03:56:29;;;;;;;;;;;-1.80;99.90;;;;;;4942214;28;20029;-70
2022/12/12 03:59:02;;;;;;;;;;;-1.80;99.90;;;;;;4942285;28;19969;-70
2022/12/12 04:01:34;;;;;;;;;;;-1.80;99.90;;;;;;4959075;28;20389;-70
2022/12/12 04:04:18;;;;;;;;;;;-1.80;99.90;;;;;;4943487;28;20379;-70
2022/12/12 04:06:54;;;;;;;;;;;-1.80;99.90;;;;;;4941298;28;19933;-70
2022/12/12 04:15:02;;;;;;;;;;;-1.70;99.90;;;;;;4962389;28;20012;-70
2022/12/12 04:17:32;;;;;;;;;;;-1.70;99.90;;;;;;4964520;28;19948;-71
2022/12/12 04:23:14;;;;;;;;;;;-1.60;99.90;;;;;;4961807;28;19930;-70
2022/12/12 04:28:49;;;;;;;;;;;-1.50;99.90;;;;;;4956578;28;19927;-70
2022/12/12 04:31:17;;;;;;;;;;;-1.40;99.90;;;;;;4953567;28;19927;-70
2022/12/12 04:33:46;;;;;;;;;;;-1.40;99.90;;;;;;4946732;28;20300;-70
2022/12/12 04:36:13;;;;;;;;;;;-1.40;99.90;;;;;;4942626;28;19926;-70
2022/12/12 04:38:41;;;;;;;;;;;-1.30;99.90;;;;;;4951023;28;19922;-70
2022/12/12 04:41:09;;;;;;;;;;;-1.30;99.90;;;;;;4944452;28;20077;-71
2022/12/12 04:43:36;;;;;;;;;;;-1.30;99.90;;;;;;4968662;28;20397;-70
2022/12/12 04:46:06;;;;;;;;;;;-1.30;99.90;;;;;;4944318;28;20399;-70
2022/12/12 04:48:45;;;;;;;;;;;-1.30;99.90;;;;;;4949548;28;19922;-70
2022/12/12 04:51:12;;;;;;;;;;;-1.30;99.90;;;;;;4959954;28;19922;-71
2022/12/12 04:53:40;;;;;;;;;;;-1.30;99.90;;;;;;4960735;28;19930;-71
2022/12/12 04:56:08;;;;;;;;;;;-1.30;99.90;;;;;;4948439;28;19930;-70
2022/12/12 04:58:35;;;;;;;;;;;-1.30;99.90;;;;;;4962712;28;19929;-70
2022/12/12 05:01:04;;;;;;;;;;;-1.20;99.90;;;;;;4944165;28;19926;-70
2022/12/12 05:03:37;;;;;;;;;;;-1.20;99.90;;;;;;4946417;28;20410;-70
2022/12/12 05:06:07;;;;;;;;;;;-1.20;99.90;;;;;;4965468;28;19926;-70
2022/12/12 05:08:38;;;;;;;;;;;-1.20;99.90;;;;;;4979613;28;20604;-70
2022/12/12 05:11:05;;;;;;;;;;;-1.20;99.90;;;;;;4948821;28;19922;-70
2022/12/12 05:13:41;;;;;;;;;;;-1.20;99.90;;;;;;4958236;28;20014;-70
2022/12/12 05:16:21;;;;;;;;;;;-1.20;99.90;;;;;;4964356;28;20284;-70
2022/12/12 05:18:47;;;;;;;;;;;-1.30;99.90;;;;;;4958192;28;19926;-70
2022/12/12 05:21:13;;;;;;;;;;;-1.20;99.90;;;;;;4977321;28;20010;-70
2022/12/12 05:23:38;;;;;;;;;;;-1.20;99.90;;;;;;4950301;28;20290;-70
2022/12/12 05:26:33;;;;;;;;;;;-1.20;99.90;;;;;;4957517;28;19929;-70
2022/12/12 05:28:59;;;;;;;;;;;-1.20;99.90;;;;;;4931016;28;19997;-70
2022/12/12 05:31:25;;;;;;;;;;;-1.20;99.90;;;;;;4948166;28;19944;-70
2022/12/12 05:33:50;;;;;;;;;;;-1.30;99.90;;;;;;4935848;28;20403;-70
2022/12/12 05:36:16;;;;;;;;;;;-1.20;99.90;;;;;;4932577;29;19981;-71
2022/12/12 05:38:42;;;;;;;;;;;-1.20;99.90;;;;;;4962263;28;20002;-70
2022/12/12 05:41:08;;;;;;;;;;;-1.20;99.90;;;;;;4957107;28;19930;-70
2022/12/12 05:43:34;;;;;;;;;;;-1.20;99.90;;;;;;4964910;28;19938;-70
2022/12/12 05:45:59;;;;;;;;;;;-1.20;99.90;;;;;;4975905;28;19997;-70
2022/12/12 05:48:25;;;;;;;;;;;-1.20;99.90;;;;;;4947351;28;19933;-71
2022/12/12 05:50:51;;;;;;;;;;;-1.20;99.90;;;;;;4946696;28;19929;-71
2022/12/12 05:53:16;;;;;;;;;;;-1.20;99.90;;;;;;4949064;28;19981;-70
2022/12/12 05:55:42;;;;;;;;;;;-1.20;99.90;;;;;;4933584;28;19926;-70
2022/12/12 05:58:07;;;;;;;;;;;-1.20;99.90;;;;;;4956170;28;19928;-70
2022/12/12 06:00:33;;;;;;;;;;;-1.20;99.90;;;;;;4954122;28;20429;-70
2022/12/12 06:02:59;;;;;;;;;;;-1.20;99.90;;;;;;4947428;28;19930;-70
2022/12/12 06:05:24;;;;;;;;;;;-1.20;99.90;;;;;;4937594;28;20087;-70
2022/12/12 06:07:50;;;;;;;;;;;-1.30;99.90;;;;;;4946793;28;19984;-71
2022/12/12 06:10:17;;;;;;;;;;;-1.30;99.90;;;;;;4967112;28;20402;-70
2022/12/12 06:12:43;;;;;;;;;;;-1.30;99.90;;;;;;4936111;28;20415;-70
2022/12/12 06:15:09;;;;;;;;;;;-1.30;99.90;;;;;;4943324;28;20336;-70
2022/12/12 06:17:34;;;;;;;;;;;-1.30;99.90;;;;;;4947805;28;19922;-70
2022/12/12 06:20:00;;;;;;;;;;;-1.40;99.90;;;;;;4963413;28;19953;-70
2022/12/12 06:22:26;;;;;;;;;;;-1.40;99.90;;;;;;4963516;28;19948;-70
2022/12/12 06:24:51;;;;;;;;;;;-1.40;99.90;;;;;;4947961;28;20370;-70
2022/12/12 06:27:17;;;;;;;;;;;-1.50;99.90;;;;;;4958542;28;20210;-70
2022/12/12 06:29:42;;;;;;;;;;;-1.50;99.90;;;;;;4947675;28;19929;-70
2022/12/12 06:32:09;;;;;;;;;;;-1.50;99.90;;;;;;4964202;28;20417;-70
2022/12/12 06:34:36;;;;;;;;;;;-1.50;99.90;;;;;;4935723;28;19938;-70
2022/12/12 06:37:02;;;;;;;;;;;-1.50;99.90;;;;;;4946541;28;19930;-70
2022/12/12 06:39:27;;;;;;;;;;;-1.50;99.90;;;;;;4941193;29;19930;-70
2022/12/12 06:41:53;;;;;;;;;;;-1.50;99.90;;;;;;4932850;28;20280;-70
2022/12/12 06:44:19;;;;;;;;;;;-1.50;99.90;;;;;;4963911;28;20290;-71
2022/12/12 06:46:44;;;;;;;;;;;-1.50;99.90;;;;;;4951264;28;20290;-70
2022/12/12 06:49:10;;;;;;;;;;;-1.50;99.90;;;;;;4964710;28;20363;-70
2022/12/12 06:51:39;;;;;;;;;;;-1.50;99.90;;;;;;4949990;28;20712;-70
2022/12/12 06:54:05;;;;;;;;;;;-1.50;99.90;;;;;;4964276;28;19957;-70
2022/12/12 06:56:31;;;;;;;;;;;-1.50;99.90;;;;;;4961699;28;20021;-70
2022/12/12 06:58:57;;;;;;;;;;;-1.60;99.90;;;;;;4929180;29;19926;-70
2022/12/12 07:01:23;;;;;;;;;;;-1.60;99.90;;;;;;4944234;28;20268;-70
2022/12/12 07:03:50;;;;;;;;;;;-1.50;99.90;;;;;;4943028;28;20187;-70
2022/12/12 07:06:16;;;;;;;;;;;-1.60;99.90;;;;;;4947331;28;19973;-70
2022/12/12 07:08:42;;;;;;;;;;;-1.60;99.90;;;;;;4956914;28;20412;-70
2022/12/12 07:11:10;;;;;;;;;;;-1.50;99.90;;;;;;4947347;28;19930;-70
2022/12/12 07:13:36;;;;;;;;;;;-1.50;99.90;;;;;;4948250;28;19930;-70
2022/12/12 07:16:02;;;;;;;;;;;-1.50;99.90;;;;;;4956078;28;19977;-70
2022/12/12 07:18:27;;;;;;;;;;;-1.50;99.90;;;;;;4950485;28;19923;-70
2022/12/12 07:20:54;;;;;;;;;;;-1.50;99.90;;;;;;4960186;28;19957;-70
2022/12/12 07:23:19;;;;;;;;;;;-1.50;99.90;;;;;;4952423;28;19926;-70
2022/12/12 07:25:45;;;;;;;;;;;-1.50;99.90;;;;;;4953478;28;20005;-70
2022/12/12 07:28:12;;;;;;;;;;;-1.50;99.90;;;;;;4930148;29;19985;-70
2022/12/12 07:30:41;;;;;;;;;;;-1.40;99.90;;;;;;4946121;28;19926;-70
2022/12/12 07:33:07;;;;;;;;;;;-1.40;99.90;;;;;;4941551;28;20355;-70
2022/12/12 07:35:33;;;;;;;;;;;-1.40;99.90;;;;;;4957146;28;19978;-70
2022/12/12 07:37:59;;;;;;;;;;;-1.40;99.90;;;;;;4947051;28;20521;-70
2022/12/12 07:40:24;;;;;;;;;;;-1.40;99.90;;;;;;4938660;28;19965;-70
2022/12/12 07:42:50;;;;;;;;;;;-1.40;99.90;;;;;;4953620;28;20024;-70
2022/12/12 07:45:15;;;;;;;;;;;-1.30;99.90;;;;;;4952846;28;19930;-70
2022/12/12 07:47:41;;;;;;;;;;;-1.30;99.90;;;;;;4955212;28;19981;-70
2022/12/12 07:50:07;;;;;;;;;;;-1.30;99.90;;;;;;4941198;28;19922;-70
2022/12/12 07:52:32;;;;;;;;;;;-1.20;99.90;;;;;;4952272;28;19933;-70
2022/12/12 07:54:58;;;;;;;;;;;-1.20;99.90;;;;;;4952084;28;19977;-70
2022/12/12 07:57:24;;;;;;;;;;;-1.20;99.90;;;;;;4953547;28;20238;-70
2022/12/12 07:59:49;;;;;;;;;;;-1.20;99.90;;;;;;4949857;28;19977;-70
2022/12/12 08:02:15;;;;;;;;;;;-1.10;99.90;;;;;;4953642;28;20254;-70
2022/12/12 08:04:40;;;;;;;;;;;-1.10;99.90;;;;;;4953646;28;19933;-70
2022/12/12 08:07:06;;;;;;;;;;;-1.10;99.90;;;;;;4958226;28;20016;-70
2022/12/12 08:09:31;;;;;;;;;;;-1.10;99.90;;;;;;4959691;28;19922;-71
2022/12/12 08:11:57;;;;;;;;;;;-1.00;99.90;;;;;;4946528;28;20008;-71
2022/12/12 08:14:23;;;;;;;;;;;-1.00;99.90;;;;;;4954932;28;19931;-70
2022/12/12 08:16:49;;;;;;;;;;;-1.00;99.90;;;;;;4948774;28;19933;-70
2022/12/12 08:19:15;;;;;;;;;;;-1.00;99.90;;;;;;4943027;28;20136;-70
2022/12/12 08:21:41;;;;;;;;;;;-1.00;99.90;;;;;;4960244;28;19934;-70
2022/12/12 08:24:07;;;;;;;;;;;-1.00;99.90;;;;;;4941228;28;20401;-70
2022/12/12 08:26:33;;;;;;;;;;;-1.00;99.90;;;;;;4948314;28;19957;-73
2022/12/12 08:28:58;;;;;;;;;;;-0.90;99.90;;;;;;4950944;28;20023;-73
2022/12/12 08:31:24;;;;;;;;;;;-0.90;99.90;;;;;;4961737;28;19933;-73
2022/12/12 08:33:50;;;;;;;;;;;-0.90;99.90;;;;;;4947436;28;19931;-73
2022/12/12 08:36:20;;;;;;;;;;;-0.90;99.90;;;;;;4954104;28;19930;-73
2022/12/12 08:38:45;;;;;;;;;;;-0.90;99.90;;;;;;4945727;28;20017;-71
2022/12/12 08:41:12;;;;;;;;;;;-0.80;99.90;;;;;;4963692;28;20005;-71
2022/12/12 08:43:38;;;;;;;;;;;-0.80;99.90;;;;;;4959725;28;19929;-70
2022/12/12 08:46:04;;;;;;;;;;;-0.80;99.90;;;;;;4965856;28;20358;-70
2022/12/12 08:48:30;;;;;;;;;;;-0.80;99.90;;;;;;4951298;28;19926;-70
2022/12/12 08:50:56;;;;;;;;;;;-0.80;99.90;;;;;;4970727;28;19938;-70
2022/12/12 08:53:22;;;;;;;;;;;-0.80;99.90;;;;;;4957784;28;19934;-71
2022/12/12 08:55:48;;;;;;;;;;;-0.70;99.90;;;;;;4952366;28;20016;-71
2022/12/12 08:58:14;;;;;;;;;;;-0.80;99.90;;;;;;4954362;28;19969;-71
2022/12/12 09:00:40;;;;;;;;;;;-0.80;99.90;;;;;;4948762;28;19930;-71
2022/12/12 09:03:05;;;;;;;;;;;-0.70;99.90;;;;;;4938420;28;20418;-71
2022/12/12 09:05:31;;;;;;;;;;;-0.80;99.90;;;;;;4941274;28;19952;-71
2022/12/12 09:07:58;;;;;;;;;;;-0.70;99.90;;;;;;4945436;28;19941;-71
2022/12/12 09:10:24;;;;;;;;;;;-0.70;99.90;;;;;;4936160;28;20423;-71
2022/12/12 09:12:50;;;;;;;;;;;-0.70;99.90;;;;;;4943931;28;20065;-71
2022/12/12 09:15:15;;;;;;;;;;;-0.70;99.90;;;;;;4946831;28;20017;-70
2022/12/12 09:17:41;;;;;;;;;;;-0.60;99.90;;;;;;4956254;28;19930;-70
2022/12/12 09:20:07;;;;;;;;;;;-0.60;99.90;;;;;;4965450;28;19933;-71
2022/12/12 09:22:32;;;;;;;;;;;-0.60;99.90;;;;;;4967564;28;19921;-70
2022/12/12 09:24:58;;;;;;;;;;;-0.50;99.90;;;;;;4960554;28;19973;-70
2022/12/12 09:27:23;;;;;;;;;;;-0.50;99.90;;;;;;4949785;28;19926;-70
2022/12/12 09:29:49;;;;;;;;;;;-0.50;99.90;;;;;;4948760;28;19974;-70
2022/12/12 09:32:15;;;;;;;;;;;-0.50;99.90;;;;;;4952090;28;20394;-73
2022/12/12 09:34:41;;;;;;;;;;;-0.50;99.90;;;;;;4938381;28;19930;-73
2022/12/12 09:37:06;;;;;;;;;;;-0.50;99.90;;;;;;4958584;28;19989;-73
2022/12/12 09:39:32;;;;;;;;;;;-0.50;99.90;;;;;;4950732;28;20375;-73
2022/12/12 09:42:06;;;;;;;;;;;-0.50;99.90;;;;;;4948006;28;20394;-71
2022/12/12 09:44:32;;;;;;;;;;;-0.50;99.90;;;;;;4933828;28;19927;-70
2022/12/12 09:46:59;;;;;;;;;;;-0.50;99.90;;;;;;4961196;28;19930;-71
2022/12/12 09:49:33;;;;;;;;;;;-0.50;99.90;;;;;;4949910;28;19923;-71
2022/12/12 09:52:00;;;;;;;;;;;-0.40;99.90;;;;;;4954948;28;19981;-71
2022/12/12 09:54:27;;;;;;;;;;;-0.40;99.90;;;;;;4955020;28;20303;-70
2022/12/12 09:56:55;;;;;;;;;;;-0.40;99.90;;;;;;4961679;28;19930;-70
2022/12/12 09:59:27;;;;;;;;;;;-0.50;99.90;;;;;;4957871;28;19937;-70
2022/12/12 10:01:59;;;;;;;;;;;-0.50;99.90;;;;;;4961702;28;19925;-70
2022/12/12 10:04:25;;;;;;;;;;;-0.50;99.90;;;;;;4950411;28;19922;-71
2022/12/12 10:06:55;;;;;;;;;;;-0.50;99.90;;;;;;4955380;28;20092;-71
2022/12/12 10:09:37;;;;;;;;;;;-0.50;99.90;;;;;;4951990;28;20346;-71
2022/12/12 10:12:04;;;;;;;;;;;-0.50;99.90;;;;;;4948267;28;19927;-70
2022/12/12 10:14:30;;;;;;;;;;;-0.50;99.90;;;;;;4947854;28;20075;-70
2022/12/12 10:16:57;;;;;;;;;;;-0.50;99.90;;;;;;4949404;28;19923;-70
2022/12/12 10:19:24;;;;;;;;;;;-0.50;99.90;;;;;;4947943;28;19934;-70
2022/12/12 10:21:52;;;;;;;;;;;-0.50;99.90;;;;;;4958218;28;19972;-71
2022/12/12 10:24:35;;;;;;;;;;;-0.50;99.90;;;;;;4955593;28;20136;-71
2022/12/12 10:27:08;;;;;;;;;;;-0.50;99.90;;;;;;4930477;28;19927;-71
2022/12/12 10:29:33;;;;;;;;;;;-0.40;99.90;;;;;;4952661;28;20398;-70
2022/12/12 10:32:20;;;;;;;;;;;-0.40;99.90;;;;;;4975857;28;19930;-71
2022/12/12 10:34:57;;;;;;;;;;;-0.40;99.90;;;;;;4953907;28;19936;-71
2022/12/12 10:37:41;;;;;;;;;;;-0.40;99.90;;;;;;4944465;28;19933;-71
2022/12/12 10:40:10;;;;;;;;;;;-0.30;99.90;;;;;;4960469;28;20235;-71
2022/12/12 10:42:39;;;;;;;;;;;-0.30;99.90;;;;;;4966501;28;19933;-71
2022/12/12 10:45:16;;;;;;;;;;;-0.20;99.90;;;;;;4965768;28;20263;-71
2022/12/12 10:47:42;;;;;;;;;;;-0.10;99.90;;;;;;4957061;28;19973;-71
2022/12/12 10:50:14;;;;;;;;;;;0.00;99.90;;;;;;4945632;28;19926;-71
2022/12/12 10:52:40;;;;;;;;;;;0.10;99.90;;;;;;4948451;28;19922;-70
2022/12/12 10:55:24;;;;;;;;;;;0.20;99.90;;;;;;4962767;28;20427;-70
2022/12/12 10:58:00;;;;;;;;;;;0.30;99.90;;;;;;4938514;28;19931;-70
2022/12/12 11:00:29;;;;;;;;;;;0.30;99.90;;;;;;4947069;28;19957;-72
2022/12/12 11:02:58;;;;;;;;;;;0.40;99.90;;;;;;4960035;28;19938;-73
2022/12/12 11:05:25;;;;;;;;;;;0.40;99.90;;;;;;4954288;28;19982;-73
2022/12/12 11:08:01;;;;;;;;;;;0.40;99.90;;;;;;4972461;28;20658;-73
2022/12/12 11:10:35;;;;;;;;;;;0.40;99.90;;;;;;4954123;28;19922;-73
2022/12/12 11:13:21;;;;;;;;;;;0.50;99.90;;;;;;4959736;28;19937;-73
2022/12/12 11:16:10;;;;;;;;;;;0.50;99.90;;;;;;4961105;28;19933;-71
2022/12/12 11:18:35;;;;;;;;;;;0.50;99.90;;;;;;4955621;28;19933;-70
2022/12/12 11:21:09;;;;;;;;;;;0.60;99.90;;;;;;4953106;28;20306;-71
2022/12/12 11:23:38;;;;;;;;;;;0.60;99.90;;;;;;4965532;28;20294;-71
2022/12/12 11:26:09;;;;;;;;;;;0.60;99.90;;;;;;4961090;28;19933;-71
2022/12/12 11:28:35;;;;;;;;;;;0.60;99.90;;;;;;4949104;28;19926;-70
2022/12/12 11:31:03;;;;;;;;;;;0.50;99.90;;;;;;4963212;28;19929;-71
2022/12/12 11:33:58;;;;;;;;;;;0.50;99.90;;;;;;4951117;28;19965;-71
2022/12/12 11:36:30;;;;;;;;;;;0.50;99.90;;;;;;4923590;28;19974;-70
2022/12/12 11:38:56;;;;;;;;;;;0.40;99.90;;;;;;4967440;28;19922;-70
2022/12/12 11:41:22;;;;;;;;;;;0.40;99.90;;;;;;4975224;28;19926;-70
2022/12/12 11:43:47;;;;;;;;;;;0.30;99.90;;;;;;4934555;28;19923;-70
2022/12/12 11:46:15;;;;;;;;;;;0.30;99.90;;;;;;4955860;28;19928;-70
2022/12/12 11:48:50;;;;;;;;;;;0.30;99.90;;;;;;4950829;28;19965;-70
2022/12/12 11:51:34;;;;;;;;;;;0.40;99.90;;;;;;4965572;28;19969;-70
2022/12/12 11:54:00;;;;;;;;;;;0.40;99.90;;;;;;4938334;28;19926;-70
2022/12/12 11:56:37;;;;;;;;;;;0.50;99.90;;;;;;4957325;28;19926;-70
2022/12/12 11:59:22;;;;;;;;;;;0.60;99.90;;;;;;4956082;28;20020;-70
2022/12/12 12:01:55;;;;;;;;;;;0.70;99.90;;;;;;4963905;28;19926;-70
2022/12/12 12:04:29;;;;;;;;;;;0.70;99.90;;;;;;4959586;28;19922;-71
2022/12/12 12:06:54;;;;;;;;;;;0.80;99.90;;;;;;4946534;28;19922;-71
2022/12/12 12:09:23;;;;;;;;;;;0.90;99.90;;;;;;4959076;28;20399;-71
2022/12/12 12:12:03;;;;;;;;;;;0.90;99.90;;;;;;4938716;28;20249;-71
2022/12/12 12:14:37;;;;;;;;;;;0.90;99.90;;;;;;4951002;28;20150;-71
2022/12/12 12:17:21;;;;;;;;;;;0.90;99.90;;;;;;4964640;28;19926;-71
2022/12/12 12:19:46;;;;;;;;;;;1.00;99.90;;;;;;4946077;28;19927;-71
2022/12/12 12:22:18;;;;;;;;;;;1.00;99.90;;;;;;4948170;28;20182;-71
2022/12/12 12:24:52;;;;;;;;;;;1.10;99.90;;;;;;4948733;28;20045;-71
2022/12/12 12:27:18;;;;;;;;;;;1.10;99.90;;;;;;4963080;28;19930;-71
2022/12/12 12:29:55;;;;;;;;;;;1.10;99.90;;;;;;4941406;28;20214;-71
2022/12/12 12:32:33;;;;;;;;;;;1.20;99.90;;;;;;4962037;28;20321;-71
2022/12/12 12:35:17;;;;;;;;;;;1.20;99.90;;;;;;4956784;28;19937;-71
2022/12/12 12:37:55;;;;;;;;;;;1.20;99.90;;;;;;4953492;28;19926;-71
2022/12/12 12:40:24;;;;;;;;;;;1.20;99.90;;;;;;4962665;28;19929;-71
2022/12/12 12:42:55;;;;;;;;;;;1.20;99.90;;;;;;4952240;28;20330;-71
2022/12/12 12:45:34;;;;;;;;;;;1.20;99.90;;;;;;4959036;28;20432;-71
2022/12/12 12:48:19;;;;;;;;;;;1.20;99.90;;;;;;4958576;28;19929;-71
2022/12/12 12:50:49;;;;;;;;;;;1.20;99.90;;;;;;4950502;28;19977;-71
2022/12/12 12:53:20;;;;;;;;;;;1.30;99.90;;;;;;4963485;28;19930;-71
2022/12/12 12:55:47;;;;;;;;;;;1.30;99.90;;;;;;4969075;28;19980;-71
2022/12/12 12:58:21;;;;;;;;;;;1.40;99.90;;;;;;4967095;28;20335;-71
2022/12/12 13:00:58;;;;;;;;;;;1.30;99.90;;;;;;4953070;28;20426;-71
2022/12/12 13:03:26;;;;;;;;;;;1.30;99.90;;;;;;4966561;28;20050;-71
2022/12/12 13:05:54;;;;;;;;;;;1.30;99.90;;;;;;4968455;28;19930;-71
2022/12/12 13:08:33;;;;;;;;;;;1.30;99.90;;;;;;4968553;28;19934;-71
2022/12/12 13:11:02;;;;;;;;;;;1.30;99.90;;;;;;4977855;28;19923;-71
2022/12/12 13:13:33;;;;;;;;;;;1.10;99.90;;;;;;4974139;28;20446;-71
2022/12/12 13:16:01;;;;;;;;;;;1.00;99.90;;;;;;4981349;28;20131;-71
2022/12/12 13:18:28;;;;;;;;;;;1.00;99.90;;;;;;4976603;28;19981;-70
2022/12/12 13:20:57;;;;;;;;;;;0.90;99.90;;;;;;4966484;28;19926;-70
2022/12/12 13:23:29;;;;;;;;;;;0.80;99.90;;;;;;4944992;28;19929;-70
2022/12/12 13:26:08;;;;;;;;;;;0.60;99.90;;;;;;4965826;28;20255;-70
2022/12/12 13:28:57;;;;;;;;;;;0.50;99.90;;;;;;4958540;28;19922;-71
2022/12/12 13:31:34;;;;;;;;;;;0.40;99.90;;;;;;4958040;28;19973;-71
2022/12/12 13:34:12;;;;;;;;;;;0.30;99.90;;;;;;4954633;28;19946;-71
2022/12/12 13:36:40;;;;;;;;;;;0.20;99.90;;;;;;4965074;28;19926;-71
2022/12/12 13:39:07;;;;;;;;;;;0.30;99.90;;;;;;4964461;28;20469;-71
2022/12/12 13:41:52;;;;;;;;;;;0.40;99.90;;;;;;4947282;28;20437;-71
2022/12/12 13:44:37;;;;;;;;;;;0.40;99.90;;;;;;4961346;28;20008;-71
2022/12/12 13:47:09;;;;;;;;;;;0.40;99.90;;;;;;4964001;28;19922;-71
2022/12/12 13:49:54;;;;;;;;;;;0.30;99.90;;;;;;4967471;28;19930;-71
2022/12/12 13:52:20;;;;;;;;;;;0.30;99.90;;;;;;4954518;28;19958;-71
2022/12/12 13:54:46;;;;;;;;;;;0.30;99.90;;;;;;4965804;28;20064;-71
2022/12/12 13:57:13;;;;;;;;;;;0.20;99.90;;;;;;4958027;28;20380;-71
2022/12/12 13:59:51;;;;;;;;;;;0.20;99.90;;;;;;4944283;28;20371;-71
2022/12/12 14:02:34;;;;;;;;;;;0.20;99.90;;;;;;4948123;28;20151;-71
2022/12/12 14:05:06;;;;;;;;;;;0.10;99.90;;;;;;4962744;28;19922;-71
2022/12/12 14:07:31;;;;;;;;;;;0.00;99.90;;;;;;4932489;28;19931;-71
2022/12/12 14:09:58;;;;;;;;;;;0.00;99.90;;;;;;4967572;28;20297;-71
2022/12/12 14:12:24;;;;;;;;;;;-0.10;99.90;;;;;;4967148;28;19930;-71
2022/12/12 14:14:58;;;;;;;;;;;-0.20;99.90;;;;;;4967225;28;19933;-71
2022/12/12 14:17:25;;;;;;;;;;;-0.30;99.90;;;;;;4966081;28;20027;-71
2022/12/12 14:19:52;;;;;;;;;;;-0.40;99.90;;;;;;4960123;28;19922;-71
2022/12/12 14:22:28;;;;;;;;;;;-0.50;99.90;;;;;;4944334;28;19927;-71
2022/12/12 14:25:04;;;;;;;;;;;-0.50;99.90;;;;;;4967931;28;19933;-71
2022/12/12 14:27:48;;;;;;;;;;;-0.60;99.90;;;;;;4952847;28;20301;-71
2022/12/12 14:30:18;;;;;;;;;;;-0.70;99.90;;;;;;4941635;28;20005;-71
2022/12/12 14:33:11;;;;;;;;;;;-0.70;99.90;;;;;;4960320;28;19929;-71
2022/12/12 14:35:51;;;;;;;;;;;-0.80;99.90;;;;;;4950458;28;19941;-71
2022/12/12 14:38:31;;;;;;;;;;;-0.90;99.90;;;;;;4967335;28;19922;-71
2022/12/12 14:41:01;;;;;;;;;;;-0.90;99.90;;;;;;4957647;28;19922;-71
2022/12/12 14:43:29;;;;;;;;;;;-1.00;99.90;;;;;;4965567;28;19922;-71
2022/12/12 14:45:56;;;;;;;;;;;-1.00;99.90;;;;;;4972419;28;19929;-71
2022/12/12 14:48:28;;;;;;;;;;;-1.00;99.90;;;;;;4955702;28;19942;-71